Time;durP1;ratioP1;P1;durP2;ratioP2;P2;SDS_P1;SDS_P2;PMS_P1;PMS_P2;Temp;Humidity;BMP_temperature;BMP_pressure;BME280_temperature;BME280_humidity;BME280_pressure;Samples;Min_cycle;Max_cycle;Signal;HPM_P1;HPM_P2
2023/01/08 00:00:55;;;;;;;1.73;1.13;;;11.00;99.90;;;11.09;77.82;99965.28;4992925;28;20644;-67
2023/01/08 00:03:22;;;;;;;2.70;1.77;;;10.90;99.90;;;11.12;78.09;99977.22;5013881;28;20638;-69
2023/01/08 00:05:49;;;;;;;1.30;1.30;;;10.90;99.90;;;11.10;77.86;99971.31;5012184;28;20672;-66
2023/01/08 00:08:16;;;;;;;2.03;1.83;;;10.90;99.90;;;11.07;77.91;99972.41;4995278;28;20641;-71
2023/01/08 00:10:43;;;;;;;1.53;1.17;;;10.90;99.90;;;11.06;78.47;99973.38;5014973;28;21185;-65
2023/01/08 00:13:10;;;;;;;2.20;2.00;;;10.90;99.90;;;11.03;78.82;99967.59;5013120;28;20624;-66
2023/01/08 00:15:37;;;;;;;2.67;2.47;;;10.90;99.90;;;11.00;78.60;99962.59;5015732;28;20616;-66
2023/01/08 00:18:04;;;;;;;1.77;1.67;;;10.80;99.90;;;10.99;79.55;99960.97;5014504;28;20640;-67
2023/01/08 00:20:32;;;;;;;2.77;2.17;;;10.80;99.90;;;10.98;79.95;99951.47;5015284;28;20975;-67
2023/01/08 00:22:59;;;;;;;1.77;1.67;;;10.80;99.90;;;10.93;80.27;99950.06;5013934;28;20617;-64
2023/01/08 00:25:26;;;;;;;1.80;1.70;;;10.80;99.90;;;10.91;80.17;99946.75;4995601;28;20669;-67
2023/01/08 00:27:53;;;;;;;4.60;2.00;;;10.70;99.90;;;10.87;80.78;99945.38;4995636;28;20976;-67
2023/01/08 00:30:20;;;;;;;3.03;1.43;;;10.70;99.90;;;10.89;80.25;99938.25;5015295;28;21206;-66
2023/01/08 00:32:49;;;;;;;1.33;1.23;;;10.70;99.90;;;10.88;81.00;99915.69;5022156;28;20713;-67
2023/01/08 00:35:16;;;;;;;1.70;1.40;;;10.70;99.90;;;10.87;80.81;99913.22;4996525;28;20716;-66
2023/01/08 00:37:43;;;;;;;2.90;2.27;;;10.70;99.90;;;10.80;81.06;99925.97;5013602;28;20637;-66
2023/01/08 00:40:10;;;;;;;3.27;2.73;;;10.70;99.90;;;10.77;80.95;99926.22;4995745;28;20703;-66
2023/01/08 00:42:37;;;;;;;1.40;0.73;;;10.60;99.90;;;10.74;80.06;99918.66;5020766;28;20640;-68
2023/01/08 00:45:05;;;;;;;7.23;2.33;;;10.60;99.90;;;10.70;80.71;99919.88;5012296;28;20723;-66
2023/01/08 00:47:32;;;;;;;2.50;2.20;;;10.60;99.90;;;10.70;80.82;99924.25;5013472;28;21181;-67
2023/01/08 00:49:59;;;;;;;3.03;2.83;;;10.50;99.90;;;10.66;80.72;99923.69;4997499;28;20626;-66
2023/01/08 00:52:26;;;;;;;2.17;1.97;;;10.50;99.90;;;10.62;81.19;99911.03;4995244;28;20654;-65
2023/01/08 00:54:53;;;;;;;2.33;2.03;;;10.50;99.90;;;10.63;81.36;99928.31;5011160;28;20668;-67
2023/01/08 00:57:20;;;;;;;1.97;1.30;;;10.50;99.90;;;10.57;82.05;99936.66;5008782;28;20648;-66
2023/01/08 00:59:47;;;;;;;2.93;2.50;;;10.40;99.90;;;10.56;81.84;99935.00;5006654;28;20632;-65
2023/01/08 01:02:14;;;;;;;5.10;3.13;;;10.40;99.90;;;10.57;81.99;99928.81;4999021;28;20645;-65
2023/01/08 01:04:41;;;;;;;3.87;3.20;;;10.40;99.90;;;10.58;81.71;99926.13;5007666;28;20665;-66
2023/01/08 01:07:08;;;;;;;2.10;1.97;;;10.40;99.90;;;10.52;82.40;99913.56;4993923;28;21012;-66
2023/01/08 01:09:35;;;;;;;2.73;2.60;;;10.40;99.90;;;10.50;83.03;99907.63;4994034;28;20610;-66
2023/01/08 01:12:02;;;;;;;3.37;3.10;;;10.30;99.90;;;10.52;82.63;99910.13;5010637;28;20618;-65
2023/01/08 01:14:29;;;;;;;3.27;3.00;;;10.30;99.90;;;10.53;82.89;99912.63;5013910;28;21023;-65
2023/01/08 01:16:56;;;;;;;4.47;3.43;;;10.40;99.90;;;10.56;83.22;99917.56;5012557;28;20629;-65
2023/01/08 01:19:23;;;;;;;4.87;4.30;;;10.40;99.90;;;10.56;82.38;99924.56;5013129;28;21204;-66
2023/01/08 01:21:50;;;;;;;4.40;3.60;;;10.40;99.90;;;10.56;83.03;99925.38;5005544;28;21217;-66
2023/01/08 01:24:16;;;;;;;7.20;5.20;;;10.40;99.90;;;10.59;82.59;99935.56;5021686;28;20645;-66
2023/01/08 01:26:44;;;;;;;3.73;3.30;;;10.50;99.90;;;10.64;82.66;99938.66;5000355;28;20630;-68
2023/01/08 01:29:11;;;;;;;4.33;3.93;;;10.50;99.90;;;10.67;83.52;99938.38;4992964;28;20617;-66
2023/01/08 01:31:37;;;;;;;3.90;3.50;;;10.60;99.90;;;10.68;83.71;99952.25;4998998;28;20644;-69
2023/01/08 01:34:04;;;;;;;3.37;2.87;;;10.60;99.90;;;10.63;84.71;99941.34;4993076;28;20738;-66
2023/01/08 01:36:31;;;;;;;3.20;2.87;;;10.50;99.90;;;10.54;85.34;99937.72;5000198;28;20640;-66
2023/01/08 01:38:58;;;;;;;2.93;2.73;;;10.50;99.90;;;10.39;86.73;99951.22;5012784;28;21210;-66
2023/01/08 01:41:45;;;;;;;2.33;2.13;;;10.30;99.90;;;10.29;88.67;99943.31;5012094;28;20665;-65
2023/01/08 01:44:44;;;;;;;2.87;2.67;;;10.20;99.90;;;10.25;89.00;99944.50;5010647;28;20668;-67
2023/01/08 01:47:29;;;;;;;2.77;2.57;;;10.10;99.90;;;10.23;89.09;99951.63;5024627;28;20634;-66
2023/01/08 01:50:40;;;;;;;3.60;2.90;;;10.20;99.90;;;10.21;89.83;99939.66;5031787;28;20616;-65
2023/01/08 01:53:37;;;;;;;2.77;2.47;;;10.10;99.90;;;10.19;90.29;99936.34;4998764;28;20645;-66
2023/01/08 01:56:07;;;;;;;2.73;2.53;;;10.10;99.90;;;10.15;90.99;99935.78;5012462;28;20616;-66
2023/01/08 01:58:34;;;;;;;2.20;2.03;;;10.10;99.90;;;10.12;91.42;99926.44;4994993;28;20638;-65
2023/01/08 02:01:07;;;;;;;2.90;2.10;;;10.10;99.90;;;10.16;91.53;99927.00;5006559;28;20642;-66
2023/01/08 02:03:37;;;;;;;2.70;2.50;;;10.10;99.90;;;10.15;92.18;99920.16;4987394;28;20748;-69
2023/01/08 02:06:15;;;;;;;2.80;2.60;;;10.10;99.90;;;10.20;92.16;99922.38;4999504;28;20658;-66
2023/01/08 02:09:16;;;;;;;2.47;2.27;;;10.10;99.90;;;10.19;91.61;99916.34;5016639;28;20732;-69
2023/01/08 02:12:17;;;;;;;4.23;2.03;;;10.10;99.90;;;10.20;91.69;99901.53;5003796;28;21205;-67
2023/01/08 02:15:15;;;;;;;2.30;2.10;;;10.20;99.90;;;10.16;92.14;99908.75;4996520;28;21263;-65
2023/01/08 02:18:26;;;;;;;2.27;2.07;;;10.10;99.90;;;10.14;92.07;99914.09;5013049;28;20721;-65
2023/01/08 02:21:00;;;;;;;2.00;1.80;;;10.10;99.90;;;10.11;91.82;99910.94;4950941;28;21090;-66
2023/01/08 02:23:48;;;;;;;2.70;2.17;;;10.10;99.90;;;10.10;91.79;99911.81;4951356;29;20620;-67
2023/01/08 02:26:32;;;;;;;2.40;2.20;;;10.00;99.90;;;10.12;91.57;99904.75;4971443;28;20669;-67
2023/01/08 02:29:06;;;;;;;2.03;1.90;;;10.10;99.90;;;10.13;91.79;99906.41;5018708;28;21011;-68
2023/01/08 02:31:36;;;;;;;2.10;1.97;;;10.10;99.90;;;10.09;92.21;99900.56;5010616;28;20625;-67
2023/01/08 02:34:04;;;;;;;1.90;1.80;;;10.10;99.90;;;10.10;92.08;99906.63;4994074;28;21308;-68
2023/01/08 02:36:44;;;;;;;2.43;2.23;;;10.10;99.90;;;10.09;91.99;99905.78;4994753;28;20720;-66
2023/01/08 02:39:52;;;;;;;2.63;2.00;;;10.00;99.90;;;10.09;92.06;99904.97;5000868;28;20691;-66
2023/01/08 02:42:55;;;;;;;2.30;2.10;;;10.00;99.90;;;10.07;92.69;99897.25;5014380;28;20660;-65
2023/01/08 02:45:36;;;;;;;2.50;2.00;;;10.00;99.90;;;10.04;92.36;99891.47;5007934;28;20680;-66
2023/01/08 02:48:15;;;;;;;1.70;1.60;;;10.00;99.90;;;10.01;92.74;99883.91;4999263;28;20638;-66
2023/01/08 02:51:06;;;;;;;3.30;2.70;;;9.90;99.90;;;9.99;93.26;99872.78;4992747;28;20976;-66
2023/01/08 02:56:25;;;;;;;2.07;1.90;;;9.90;99.90;;;9.89;94.33;99871.88;5029983;28;20663;-65
2023/01/08 02:58:53;;;;;;;2.13;1.93;;;9.80;99.90;;;9.90;93.92;99868.34;5013720;28;20616;-64
2023/01/08 03:01:22;;;;;;;1.97;1.87;;;9.80;99.90;;;9.89;94.44;99869.28;5017801;28;20682;-64
2023/01/08 03:03:57;;;;;;;1.77;1.67;;;9.80;99.90;;;9.87;94.55;99853.78;5028031;28;20655;-64
2023/01/08 03:06:25;;;;;;;5.40;1.87;;;9.80;99.90;;;9.88;94.65;99849.41;5030638;28;20656;-65
2023/01/08 03:08:53;;;;;;;2.23;2.10;;;9.80;99.90;;;9.88;94.93;99844.97;5027526;28;20629;-65
2023/01/08 03:11:23;;;;;;;2.50;2.30;;;9.80;99.90;;;9.92;95.06;99850.78;5001988;28;20634;-65
2023/01/08 03:14:26;;;;;;;3.27;2.20;;;9.80;99.90;;;9.92;95.77;99830.75;4991840;28;20639;-65
2023/01/08 03:17:13;;;;;;;4.47;2.13;;;9.90;99.90;;;9.92;95.56;99811.72;5008582;28;20635;-65
2023/01/08 03:19:48;;;;;;;2.87;2.67;;;9.90;99.90;;;9.95;95.68;99801.84;4984800;28;20642;-64
2023/01/08 03:22:16;;;;;;;2.70;2.03;;;9.90;99.90;;;9.98;96.44;99799.00;4993158;28;20643;-67
2023/01/08 03:24:48;;;;;;;2.13;2.03;;;9.90;99.90;;;10.03;96.12;99802.03;5006319;28;20652;-66
2023/01/08 03:27:21;;;;;;;2.07;1.97;;;10.00;99.90;;;10.02;95.77;99807.38;5015681;28;20636;-65
2023/01/08 03:29:51;;;;;;;2.00;1.90;;;10.00;99.90;;;10.03;95.87;99811.63;4993782;28;20610;-65
2023/01/08 03:32:20;;;;;;;1.73;1.63;;;10.00;99.90;;;10.02;96.95;99804.78;5004962;28;20694;-67
2023/01/08 03:34:52;;;;;;;2.73;2.10;;;10.00;99.90;;;9.98;96.53;99808.59;5012459;28;21250;-66
2023/01/08 03:37:26;;;;;;;3.63;2.43;;;9.90;99.90;;;9.97;97.61;99812.97;5003365;28;20987;-66
2023/01/08 03:40:09;;;;;;;2.13;2.00;;;9.90;99.90;;;9.92;97.84;99812.50;4986094;28;20637;-65
2023/01/08 03:42:36;;;;;;;2.13;2.03;;;9.90;99.90;;;9.89;98.12;99804.97;4994259;28;20633;-67
2023/01/08 03:45:04;;;;;;;2.07;1.97;;;9.80;99.90;;;9.88;98.51;99805.91;4973310;28;20924;-67
2023/01/08 03:47:33;;;;;;;2.17;1.97;;;9.80;99.90;;;9.87;98.91;99801.66;4990138;28;20629;-68
2023/01/08 03:50:05;;;;;;;2.07;1.97;;;9.80;99.90;;;9.86;99.19;99793.97;5010339;28;20629;-66
2023/01/08 03:52:33;;;;;;;2.07;1.97;;;9.80;99.90;;;9.86;99.19;99793.97;5019126;28;20633;-66
2023/01/08 03:55:00;;;;;;;2.10;2.00;;;9.80;99.90;;;9.87;98.83;99796.44;4984618;28;21034;-65
2023/01/08 03:57:27;;;;;;;1.80;1.70;;;9.80;99.90;;;9.90;98.12;99784.97;5024527;28;20636;-69
2023/01/08 03:59:54;;;;;;;1.60;1.50;;;9.90;99.90;;;9.90;97.70;99780.53;5029910;28;20612;-65
2023/01/08 04:02:21;;;;;;;1.60;1.53;;;9.90;99.90;;;9.94;97.08;99781.13;5020818;28;21247;-66
2023/01/08 04:04:48;;;;;;;1.80;1.70;;;9.90;99.90;;;9.94;96.15;99778.53;5022274;28;21285;-67
2023/01/08 04:07:15;;;;;;;2.90;2.00;;;9.90;99.90;;;9.94;96.65;99781.13;5027382;28;20726;-68
2023/01/08 04:09:42;;;;;;;2.07;1.90;;;9.90;99.90;;;9.92;95.69;99773.44;5018502;28;21009;-65
2023/01/08 04:12:09;;;;;;;0.80;0.80;;;9.90;99.90;;;9.87;95.61;99769.56;4993993;28;20625;-65
2023/01/08 04:14:35;;;;;;;0.70;0.70;;;9.90;99.90;;;9.82;95.30;99771.72;5010594;28;20629;-66
2023/01/08 04:17:02;;;;;;;3.27;2.97;;;9.80;99.90;;;9.75;95.46;99765.38;5010787;28;20715;-65
2023/01/08 04:19:29;;;;;;;0.97;0.87;;;9.80;99.90;;;9.70;95.21;99770.13;5010445;28;20654;-68
2023/01/08 04:21:56;;;;;;;2.10;2.00;;;9.70;99.90;;;9.60;95.74;99770.06;5009801;28;20715;-66
2023/01/08 04:24:23;;;;;;;1.03;0.97;;;9.60;99.90;;;9.58;95.94;99773.72;5010643;28;20638;-65
2023/01/08 04:26:50;;;;;;;1.33;1.20;;;9.50;99.90;;;9.53;95.74;99766.28;5007384;28;20685;-65
2023/01/08 04:29:17;;;;;;;1.27;1.27;;;9.50;99.90;;;9.52;95.35;99763.81;4991100;28;20614;-65
2023/01/08 04:31:43;;;;;;;3.03;2.30;;;9.50;99.90;;;9.51;95.43;99775.16;4999970;28;21035;-68
2023/01/08 04:34:10;;;;;;;1.70;1.60;;;9.40;99.90;;;9.45;94.91;99771.28;5010193;28;21118;-65
2023/01/08 04:36:37;;;;;;;2.17;1.97;;;9.40;99.90;;;9.42;94.53;99775.91;5010784;28;20641;-65
2023/01/08 04:39:04;;;;;;;1.50;1.43;;;9.30;99.90;;;9.42;95.06;99776.72;5010957;28;20613;-65
2023/01/08 04:41:31;;;;;;;1.20;1.07;;;9.40;99.90;;;9.39;95.89;99780.41;5016441;28;20647;-65
2023/01/08 04:43:58;;;;;;;1.07;1.07;;;9.40;99.90;;;9.37;95.87;99777.09;5017828;28;20675;-66
2023/01/08 04:46:25;;;;;;;2.13;1.67;;;9.30;99.90;;;9.35;96.05;99781.59;5009962;28;20668;-65
2023/01/08 04:48:52;;;;;;;2.67;2.17;;;9.30;99.90;;;9.34;96.40;99782.56;5020672;28;20682;-67
2023/01/08 04:51:20;;;;;;;1.37;0.80;;;9.30;99.90;;;9.32;97.21;99784.47;5026430;28;20636;-65
2023/01/08 04:53:47;;;;;;;0.90;0.70;;;9.30;99.90;;;9.33;96.73;99783.50;5014468;28;20617;-66
2023/01/08 04:56:14;;;;;;;1.70;1.40;;;9.30;99.90;;;9.31;96.92;99774.16;5016301;28;20644;-65
2023/01/08 04:58:41;;;;;;;2.73;2.07;;;9.30;99.90;;;9.31;96.70;99768.94;5033798;28;20615;-65
2023/01/08 05:01:18;;;;;;;2.80;2.43;;;9.30;99.90;;;9.27;96.98;99771.00;5023349;28;20644;-65
2023/01/08 05:03:46;;;;;;;1.33;1.07;;;9.20;99.90;;;9.22;97.34;99775.72;5012138;28;21241;-72
2023/01/08 05:06:13;;;;;;;0.90;0.90;;;9.20;99.90;;;9.22;97.20;99775.72;5019709;28;21016;-66
2023/01/08 05:08:40;;;;;;;1.27;0.73;;;9.20;99.90;;;9.21;97.23;99771.47;5026573;28;20640;-66
2023/01/08 05:11:07;;;;;;;0.90;0.87;;;9.20;99.90;;;9.16;98.40;99785.78;5033336;28;20628;-66
2023/01/08 05:13:34;;;;;;;1.17;1.00;;;9.10;99.90;;;9.16;98.32;99777.97;5030352;28;21225;-65
2023/01/08 05:16:01;;;;;;;1.47;1.37;;;9.10;99.90;;;9.11;98.75;99778.38;4997305;28;20680;-67
2023/01/08 05:18:29;;;;;;;1.10;1.10;;;9.10;99.90;;;9.05;99.75;99781.44;5013677;28;20615;-66
2023/01/08 05:21:01;;;;;;;1.80;1.07;;;9.00;99.90;;;9.05;100.00;99786.63;4981124;28;21199;-64
2023/01/08 05:23:29;;;;;;;3.00;2.17;;;9.00;99.90;;;9.02;100.00;99776.50;5021194;28;20640;-66
2023/01/08 05:25:57;;;;;;;2.97;2.37;;;9.00;99.90;;;9.03;100.00;99770.31;5013260;28;20672;-66
2023/01/08 05:28:25;;;;;;;1.20;1.00;;;9.00;99.90;;;9.04;100.00;99766.78;5017962;28;20640;-66
2023/01/08 05:30:52;;;;;;;1.77;1.67;;;9.00;99.90;;;9.07;100.00;99769.13;5011807;28;20629;-66
2023/01/08 05:33:20;;;;;;;0.63;0.63;;;9.00;99.90;;;9.07;100.00;99768.31;5012363;28;20585;-66
2023/01/08 05:35:47;;;;;;;2.03;1.90;;;9.00;99.90;;;9.08;100.00;99775.16;4994616;28;20633;-67
2023/01/08 05:38:14;;;;;;;2.40;2.00;;;9.10;99.90;;;9.04;100.00;99769.38;5027005;28;20644;-65
2023/01/08 05:40:41;;;;;;;2.20;2.07;;;9.00;99.90;;;9.06;100.00;99764.06;5012298;28;20627;-65
2023/01/08 05:43:08;;;;;;;1.20;1.03;;;9.00;99.90;;;9.04;100.00;99766.78;5013577;28;20617;-65
2023/01/08 05:45:35;;;;;;;1.03;1.03;;;9.00;99.90;;;9.01;100.00;99767.03;5012542;28;20652;-68
2023/01/08 05:48:06;;;;;;;2.17;1.30;;;9.00;99.90;;;9.03;100.00;99762.53;5013561;28;20614;-65
2023/01/08 05:50:34;;;;;;;3.00;2.00;;;9.00;99.90;;;9.01;100.00;99769.63;5005109;28;21285;-69
2023/01/08 05:53:05;;;;;;;1.37;1.27;;;9.00;99.90;;;9.02;100.00;99766.09;5025383;28;20629;-68
2023/01/08 05:55:32;;;;;;;0.90;0.90;;;9.00;99.90;;;8.98;100.00;99759.47;5023524;28;20658;-66
2023/01/08 05:58:03;;;;;;;1.20;0.80;;;8.90;99.90;;;8.99;100.00;99768.09;5032043;28;20666;-64
2023/01/08 06:00:32;;;;;;;1.37;1.37;;;9.00;99.90;;;8.94;100.00;99763.28;5029243;28;21001;-67
2023/01/08 06:02:59;;;;;;;1.00;0.93;;;8.90;99.90;;;8.95;100.00;99759.69;5029994;28;20968;-65
2023/01/08 06:05:26;;;;;;;1.33;1.03;;;9.00;99.90;;;8.96;100.00;99753.56;5022768;28;21324;-66
2023/01/08 06:07:53;;;;;;;2.07;1.97;;;8.90;99.90;;;8.97;100.00;99742.19;5016457;28;20694;-66
2023/01/08 06:10:20;;;;;;;1.57;1.47;;;9.00;99.90;;;8.99;100.00;99742.91;5031077;28;20620;-67
2023/01/08 06:12:46;;;;;;;2.70;2.20;;;9.00;99.90;;;9.01;100.00;99740.16;5006764;28;21250;-65
2023/01/08 06:15:13;;;;;;;1.53;0.87;;;9.00;99.90;;;8.92;100.00;99740.91;5031991;28;21287;-65
2023/01/08 06:17:41;;;;;;;1.07;0.93;;;8.90;99.90;;;8.93;100.00;99746.00;5025072;28;20633;-66
2023/01/08 06:20:09;;;;;;;0.90;0.90;;;8.90;99.90;;;8.93;100.00;99740.78;5012034;28;21181;-69
2023/01/08 06:22:36;;;;;;;1.03;0.83;;;8.90;99.90;;;8.93;100.00;99751.19;4995601;28;21197;-69
2023/01/08 06:25:03;;;;;;;1.67;1.57;;;8.90;99.90;;;8.88;100.00;99755.91;5031338;28;20633;-66
2023/01/08 06:27:30;;;;;;;1.43;1.23;;;8.90;99.90;;;8.91;100.00;99752.25;5023557;28;20676;-66
2023/01/08 06:29:57;;;;;;;1.57;1.07;;;8.90;99.90;;;8.90;100.00;99755.81;5013134;28;20613;-65
2023/01/08 06:32:24;;;;;;;1.23;1.13;;;8.90;99.90;;;8.90;100.00;99761.81;5012016;28;21019;-66
2023/01/08 06:34:51;;;;;;;0.70;0.70;;;8.90;99.90;;;8.91;100.00;99768.69;5014695;28;20653;-65
2023/01/08 06:37:18;;;;;;;1.27;1.27;;;8.90;99.90;;;8.94;100.00;99763.28;5012619;28;20620;-68
2023/01/08 06:39:45;;;;;;;0.93;0.93;;;8.90;99.90;;;8.95;100.00;99756.28;5029517;28;21212;-65
2023/01/08 06:42:11;;;;;;;0.30;0.30;;;8.90;99.90;;;8.94;100.00;99758.06;5025258;28;20640;-65
2023/01/08 06:44:38;;;;;;;2.30;1.80;;;8.90;99.90;;;8.92;100.00;99765.13;5025458;28;20997;-66
2023/01/08 06:47:05;;;;;;;3.50;1.07;;;8.90;99.90;;;8.92;100.00;99770.34;5025197;28;20661;-65
2023/01/08 06:49:32;;;;;;;2.73;1.53;;;8.90;99.90;;;8.91;100.00;99788.69;5013308;28;21065;-65
2023/01/08 06:51:59;;;;;;;1.43;1.33;;;8.80;99.90;;;8.90;100.00;99777.44;5019003;28;20628;-67
2023/01/08 06:54:26;;;;;;;1.70;1.47;;;8.90;99.90;;;8.87;100.00;99772.50;5026388;28;20660;-65
2023/01/08 06:56:52;;;;;;;0.53;0.53;;;8.80;99.90;;;8.88;100.00;99776.72;5014594;28;20644;-64
2023/01/08 06:59:20;;;;;;;1.27;1.27;;;8.80;99.90;;;8.93;100.00;99777.22;5006112;28;20637;-65
2023/01/08 07:01:48;;;;;;;1.90;1.80;;;8.90;99.90;;;8.86;100.00;99776.03;5011749;28;21081;-66
2023/01/08 07:04:16;;;;;;;1.90;1.63;;;8.90;99.90;;;8.93;100.00;99772.00;5018444;28;20703;-65
2023/01/08 07:06:43;;;;;;;1.40;1.07;;;8.90;99.90;;;8.93;100.00;99772.00;5017489;28;20743;-65
2023/01/08 07:09:14;;;;;;;4.60;1.40;;;8.90;99.90;;;8.95;100.00;99764.91;5010908;28;20637;-66
2023/01/08 07:11:41;;;;;;;0.87;0.87;;;8.90;99.90;;;8.96;100.00;99773.53;5011373;28;20609;-66
2023/01/08 07:14:08;;;;;;;0.93;0.80;;;8.90;99.90;;;9.00;100.00;99780.16;5021511;28;20653;-65
2023/01/08 07:16:35;;;;;;;0.80;0.80;;;8.90;99.90;;;8.99;100.00;99774.13;5021309;28;20665;-67
2023/01/08 07:19:02;;;;;;;0.50;0.50;;;8.90;99.90;;;9.03;100.00;99785.94;5017327;28;21212;-65
2023/01/08 07:21:30;;;;;;;1.40;1.40;;;9.00;99.90;;;9.05;100.00;99765.81;5010064;28;20621;-66
2023/01/08 07:23:58;;;;;;;0.53;0.53;;;9.00;99.90;;;9.10;100.00;99771.50;5022637;28;20660;-65
2023/01/08 07:26:25;;;;;;;1.40;1.30;;;9.10;99.90;;;9.10;100.00;99766.28;5030785;28;21343;-67
2023/01/08 07:28:52;;;;;;;1.47;1.40;;;9.10;99.90;;;9.13;100.00;99778.25;5020316;28;20625;-65
2023/01/08 07:31:19;;;;;;;3.70;1.10;;;9.10;99.90;;;9.11;100.00;99770.56;5026789;28;20647;-68
2023/01/08 07:33:46;;;;;;;0.80;0.80;;;9.10;99.90;;;9.11;100.00;99777.53;5030196;28;20678;-68
2023/01/08 07:36:14;;;;;;;0.83;0.83;;;9.10;99.90;;;9.15;100.00;99777.19;5020945;28;20659;-68
2023/01/08 07:38:42;;;;;;;1.23;1.13;;;9.10;99.90;;;9.21;100.00;99770.66;5012149;28;21004;-64
2023/01/08 07:41:08;;;;;;;0.40;0.40;;;9.10;99.90;;;9.22;100.00;99769.72;5009427;28;20644;-67
2023/01/08 07:43:35;;;;;;;1.00;0.83;;;9.20;99.90;;;9.19;100.00;99772.53;5010874;28;20736;-69
2023/01/08 07:46:03;;;;;;;1.80;1.70;;;9.10;99.90;;;9.21;100.00;99775.84;5009881;28;20656;-66
2023/01/08 07:48:30;;;;;;;2.03;1.93;;;9.10;99.90;;;9.21;100.00;99786.25;5010200;28;20724;-65
2023/01/08 07:51:03;;;;;;;1.43;1.33;;;9.20;99.90;;;9.24;100.00;99786.03;5017600;28;20732;-65
2023/01/08 07:53:30;;;;;;;5.33;1.23;;;9.20;99.90;;;9.24;100.00;99786.03;5019553;28;20819;-67
2023/01/08 07:56:08;;;;;;;0.83;0.83;;;9.20;99.90;;;9.25;100.00;99796.31;5023832;28;20696;-67
2023/01/08 07:58:35;;;;;;;1.20;1.20;;;9.20;99.90;;;9.22;100.00;99786.13;4999815;28;21114;-65
2023/01/08 08:01:07;;;;;;;0.90;0.90;;;9.20;99.90;;;9.23;100.00;99774.78;5022660;28;20638;-69
2023/01/08 08:03:34;;;;;;;1.47;1.37;;;9.20;99.90;;;9.23;100.00;99776.56;5018323;28;20620;-67
2023/01/08 08:06:01;;;;;;;1.80;1.70;;;9.20;99.90;;;9.20;100.00;99785.44;5023909;28;20641;-65
2023/01/08 08:08:27;;;;;;;1.17;1.03;;;9.20;99.90;;;9.19;100.00;99782.97;5011613;28;20637;-65
2023/01/08 08:10:54;;;;;;;1.77;0.63;;;9.10;99.90;;;9.25;100.00;99779.88;5021688;28;20624;-68
2023/01/08 08:13:21;;;;;;;0.80;0.80;;;9.10;99.90;;;9.23;100.00;99774.78;5010093;28;20708;-66
2023/01/08 08:15:48;;;;;;;0.63;0.63;;;9.20;99.90;;;9.22;100.00;99772.31;5009959;28;21059;-65
2023/01/08 08:18:15;;;;;;;3.00;1.43;;;9.20;99.90;;;9.22;100.00;99772.31;5013061;28;20631;-66
2023/01/08 08:20:42;;;;;;;0.60;0.60;;;9.20;99.90;;;9.21;100.00;99781.91;5010798;28;20622;-70
2023/01/08 08:23:13;;;;;;;1.17;1.17;;;9.10;99.90;;;9.25;100.00;99777.25;5008993;28;20614;-64
2023/01/08 08:25:41;;;;;;;1.03;0.80;;;9.20;99.90;;;9.24;100.00;99783.44;4996497;28;20643;-66
2023/01/08 08:28:10;;;;;;;2.07;1.37;;;9.20;99.90;;;9.22;100.00;99778.31;5013093;28;21017;-67
2023/01/08 08:30:38;;;;;;;1.70;0.80;;;9.20;99.90;;;9.19;100.00;99783.78;5013828;28;21014;-65
2023/01/08 08:33:09;;;;;;;0.87;0.83;;;9.10;99.90;;;9.20;100.00;99771.59;5018293;28;20640;-68
2023/01/08 08:35:37;;;;;;;1.10;1.10;;;9.10;99.90;;;9.19;100.00;99765.56;5033095;28;21222;-67
2023/01/08 08:38:04;;;;;;;0.90;0.90;;;9.10;99.90;;;9.22;100.00;99761.91;5022134;28;20636;-64
2023/01/08 08:40:31;;;;;;;0.50;0.50;;;9.20;99.90;;;9.32;100.00;99768.84;5023921;28;20703;-64
2023/01/08 08:43:03;;;;;;;1.40;1.20;;;9.20;99.90;;;9.45;100.00;99757.44;5017768;28;20640;-65
2023/01/08 08:45:30;;;;;;;0.93;0.70;;;9.40;99.90;;;9.54;100.00;99761.91;5033413;28;20679;-64
2023/01/08 08:47:57;;;;;;;1.37;1.33;;;9.40;99.90;;;9.57;100.00;99756.44;5022675;28;20665;-66
2023/01/08 08:50:25;;;;;;;0.90;0.90;;;9.50;99.90;;;9.64;100.00;99762.81;5030379;28;20698;-65
2023/01/08 08:52:52;;;;;;;1.40;0.93;;;9.60;99.90;;;9.69;100.00;99763.28;5019134;28;20672;-64
2023/01/08 08:55:19;;;;;;;0.80;0.80;;;9.60;99.90;;;9.63;100.00;99761.97;5048406;22;20695;-65
2023/01/08 08:57:46;;;;;;;1.43;0.97;;;9.60;99.90;;;9.67;100.00;99752.16;5032923;28;20627;-65
2023/01/08 09:00:14;;;;;;;2.67;2.23;;;9.60;99.90;;;9.67;100.00;99747.75;5034207;28;20723;-64
2023/01/08 09:02:41;;;;;;;1.13;0.87;;;9.60;99.90;;;9.67;100.00;99746.94;5015509;28;20635;-66
2023/01/08 09:05:10;;;;;;;1.77;1.27;;;9.60;99.90;;;9.68;100.00;99741.59;5048517;28;20643;-65
2023/01/08 09:07:37;;;;;;;1.67;1.57;;;9.60;99.90;;;9.64;100.00;99747.19;5014288;28;20657;-68
2023/01/08 09:10:05;;;;;;;2.10;0.70;;;9.60;99.90;;;9.54;100.00;99747.09;5024433;28;20640;-67
2023/01/08 09:12:32;;;;;;;1.27;1.17;;;9.50;99.90;;;9.50;100.00;99750.91;5007652;28;20608;-67
2023/01/08 09:14:59;;;;;;;1.60;0.60;;;9.50;99.90;;;9.51;100.00;99746.53;5017202;28;20637;-67
2023/01/08 09:17:26;;;;;;;1.63;1.53;;;9.40;99.90;;;9.55;100.00;99756.56;5016471;28;20632;-67
2023/01/08 09:19:52;;;;;;;0.60;0.60;;;9.50;99.90;;;9.55;100.00;99755.75;5032586;28;21227;-66
2023/01/08 09:22:19;;;;;;;0.90;0.90;;;9.50;99.90;;;9.58;100.00;99764.16;5015935;28;20635;-68
2023/01/08 09:24:46;;;;;;;2.00;1.30;;;9.50;99.90;;;9.62;100.00;99765.53;5031948;28;20663;-66
2023/01/08 09:27:14;;;;;;;1.33;1.20;;;9.60;99.90;;;9.63;100.00;99761.13;5048406;28;20850;-67
2023/01/08 09:29:41;;;;;;;2.00;1.90;;;9.60;99.90;;;9.61;100.00;99758.66;5015293;28;20731;-66
2023/01/08 09:32:08;;;;;;;2.03;1.20;;;9.50;99.90;;;9.63;100.00;99755.94;5033610;28;20604;-68
2023/01/08 09:34:35;;;;;;;1.27;1.17;;;9.60;99.90;;;9.61;100.00;99756.06;5036553;28;20660;-65
2023/01/08 09:37:04;;;;;;;1.10;1.10;;;9.60;99.90;;;9.62;100.00;99754.28;5028662;28;21068;-67
2023/01/08 09:39:32;;;;;;;1.47;1.37;;;9.60;99.90;;;9.64;100.00;99762.81;5040854;28;20644;-66
2023/01/08 09:42:03;;;;;;;1.40;1.27;;;9.60;99.90;;;9.67;100.00;99760.78;5027091;28;21057;-65
2023/01/08 09:44:39;;;;;;;0.90;0.90;;;9.60;99.90;;;9.72;100.00;99760.41;5024196;28;20686;-66
2023/01/08 09:47:38;;;;;;;2.13;1.90;;;9.60;99.90;;;9.75;100.00;99763.56;5015767;28;20652;-67
2023/01/08 09:50:11;;;;;;;1.33;1.23;;;9.70;99.90;;;9.75;100.00;99760.16;4999939;28;20998;-66
2023/01/08 09:52:38;;;;;;;1.43;1.33;;;9.70;99.90;;;9.78;100.00;99750.31;5013616;28;20992;-65
2023/01/08 09:55:15;;;;;;;0.80;0.80;;;9.70;99.90;;;9.82;100.00;99753.47;5034391;28;20664;-67
2023/01/08 09:57:43;;;;;;;1.63;1.53;;;9.80;99.90;;;9.80;100.00;99757.97;5032169;28;20994;-66
2023/01/08 10:00:28;;;;;;;1.00;0.97;;;9.80;99.90;;;9.81;100.00;99757.88;5005098;28;20739;-66
2023/01/08 10:02:56;;;;;;;4.50;3.00;;;9.70;99.90;;;9.82;100.00;99750.88;5012848;28;20671;-66
2023/01/08 10:05:26;;;;;;;1.47;1.17;;;9.80;99.90;;;9.88;100.00;99747.78;4996074;28;20657;-65
2023/01/08 10:07:53;;;;;;;1.20;1.13;;;9.80;99.90;;;9.95;100.00;99747.13;5012244;28;21244;-67
2023/01/08 10:10:28;;;;;;;0.77;0.77;;;9.90;99.90;;;9.98;100.00;99746.06;5025495;28;20625;-67
2023/01/08 10:12:55;;;;;;;1.40;1.07;;;9.90;99.90;;;9.98;100.00;99743.44;5012373;28;20627;-67
2023/01/08 10:15:22;;;;;;;1.60;1.00;;;9.90;99.90;;;9.98;100.00;99749.50;5025675;28;21057;-67
2023/01/08 10:18:05;;;;;;;0.87;0.87;;;9.90;99.90;;;9.94;100.00;99739.44;5013105;28;20620;-67
2023/01/08 10:20:33;;;;;;;1.63;1.33;;;9.90;99.90;;;9.91;100.00;99734.47;5013617;28;20728;-67
2023/01/08 10:23:29;;;;;;;0.73;0.73;;;9.90;99.90;;;9.90;100.00;99738.06;5030889;28;20662;-66
2023/01/08 10:26:01;;;;;;;0.90;0.90;;;9.90;99.90;;;9.93;100.00;99735.19;5012143;28;20652;-67
2023/01/08 10:28:36;;;;;;;0.30;0.30;;;9.90;99.90;;;9.92;100.00;99736.94;5010091;28;20711;-68
2023/01/08 10:31:07;;;;;;;0.60;0.60;;;9.90;99.90;;;9.93;100.00;99735.19;5031182;28;20966;-66
2023/01/08 10:33:45;;;;;;;1.00;1.00;;;9.80;99.90;;;9.97;100.00;99728.75;5031180;28;20678;-67
2023/01/08 10:36:22;;;;;;;0.83;0.83;;;9.90;99.90;;;9.98;100.00;99733.03;5030814;28;20672;-68
2023/01/08 10:38:57;;;;;;;5.30;0.37;;;9.90;99.90;;;10.00;100.00;99731.13;5031629;28;20788;-67
2023/01/08 10:41:25;;;;;;;1.30;1.20;;;9.90;99.90;;;10.01;100.00;99724.94;5012323;28;20632;-66